METAR Data
IDs: Format: Raw Decoded Include TAF

Data at: 0204 UTC 01 Mar 2021

VTBS 010130Z 13006KT 7000 FEW016 28/24 Q1013 NOSIG